Mansfield, TX (76063)

7:12 AM CST on November 26, 2014 (GMT -0600)
Cest La Vie | Change Station
CLOSE
Current Station
Personal Weather Station
Location: Mansfield, TX
Elevation: 643 ft
Nearby Weather Stations

Elev 643 ft 32.57 °N, 97.17 °W | Updated 1 minute ago

Clear
Clear
41.4 °F
Feels Like 41 °F
N
0.0
Wind Variable Wind from East

Today
High -- | Low -- °F
--% Chance of Precip.
Yesterday
High -- | Low -- °F
Precip. -- in
7:08 AM 5:23 PM
Waxing Crescent, 19% visible
Pressure 30.07 in
Visibility 10.0 miles
Clouds Clear
Windchill 41 °F
Dew Point 27 °F
Humidity 57%
Rainfall 0.00 in
Snow Depth Not available.
UV 0 out of 12
Pollen 5.00 out of 12
Air Quality Not available.
Flu Activity Not available.
METAR KGKY 261253Z 12003KT 10SM CLR 04/M02 A3007 RMK AO2 SLP182 T00391017

More Conditions Fewer Conditions

Pressure 30.07 in
Visibility 10.0 miles
Clouds Clear
Windchill 41 °F
Dew Point 27 °F
Humidity 57%
Rainfall 0.00 in
Snow Depth Not available.
UV 0 out of 12
Pollen 5.00 out of 12
Air Quality Not available.
Flu Activity Not available.
METAR KGKY 261253Z 12003KT 10SM CLR 04/M02 A3007 RMK AO2 SLP182 T00391017

More Conditions Fewer Conditions

10-Day Weather Forecast

Almanac

Astronomy

Nov. 26, 2014 Rise Set
Actual Time
Civil Twilight
Nautical Twilight
Astronomical Twilight
Moon
Length of Visible Light
Length of Day
Tomorrow will be .
, % of the Moon is Illuminated

Today's Extremes

State Highs State Lows

Community

WunderPhotos

Upload Photos

1,773,722 photos uploaded!

WunderBlogs® & News

Nearby

Air Quality

  Air Quality AQ Index Pollutant
Not available.

Snow Depth

Station Depth Elevation

Earthquake Activity

City Distance Mag. Time & Date
Minimum magnitude displayed is 2.5.

Coastal Water Temperatures

Place Temperature

Nearby Weather Stations